Quimper-Cornouaille Airport

Airport
ICAO code: 
LFRQ
IATA Code: 
UIP
Summary
ICAO Region: 
EUR
Territory: 
Location: 
, Bretagne
Serving: 
Quimper
Elevation: 
297 ft
Coordinates: 
Aerial View: 
47° 58' 29.932" N, 4° 10' 4.03" W
Metar
Observation
LFRQ 302030Z AUTO 25011KT 9000 -RA BKN013 OVC018 11/09 Q1016 TEMPO 24020G39KT 3000 RA BKN005
Station
Quimper
Date/Time
2021-11-30 20:30:00
Wind direction
250°
Wind speed
11 kts
Lowest cloud amount
broken clouds
Temperature
11°C
Dew point
9°C
Humidity
87%
QNH
1016 hPa
Weather condition
n/a

Runways

Designator Length Width Surface Rops
4/22 810 45 ASP No/No
10/28 2150 45 ASP Yes/Yes
Airport map: 
Aerial View: 

SKYbrary Partners:

Safety knowledge contributed by: